Time;durP1;ratioP1;P1;durP2;ratioP2;P2;SDS_P1;SDS_P2;PMS_P1;PMS_P2;Temp;Humidity;BMP_temperature;BMP_pressure;BME280_temperature;BME280_humidity;BME280_pressure;Samples;Min_cycle;Max_cycle;Signal;HPM_P1;HPM_P2
2023/03/01 00:02:12;;;;;;;19.97;11.43;;;;;;;;;;5044907;28;20021;-70
2023/03/01 00:04:37;;;;;;;18.63;11.82;;;;;;;;;;5045249;28;20276;-70
2023/03/01 00:07:02;;;;;;;23.27;14.17;;;;;;;;;;5045874;28;20021;-69
2023/03/01 00:09:28;;;;;;;24.03;11.80;;;;;;;;;;5029981;28;20782;-72
2023/03/01 00:11:53;;;;;;;24.00;12.40;;;;;;;;;;5054467;28;20535;-69
2023/03/01 00:14:18;;;;;;;21.20;11.63;;;;;;;;;;5048993;28;20350;-69
2023/03/01 00:16:44;;;;;;;20.08;10.68;;;;;;;;;;5042954;28;20284;-71
2023/03/01 00:19:12;;;;;;;25.02;12.55;;;;;;;;;;5049435;28;20028;-70
2023/03/01 00:21:37;;;;;;;18.67;11.15;;;;;;;;;;5041076;28;20036;-70
2023/03/01 00:24:02;;;;;;;23.08;10.80;;;;;;;;;;5044577;28;20598;-72
2023/03/01 00:26:28;;;;;;;22.00;12.32;;;;;;;;;;5047244;28;20036;-70
2023/03/01 00:28:55;;;;;;;22.77;12.32;;;;;;;;;;5048659;28;20021;-70
2023/03/01 00:31:24;;;;;;;22.27;11.25;;;;;;;;;;5048492;28;20043;-70
2023/03/01 00:33:52;;;;;;;21.45;11.40;;;;;;;;;;5044456;28;20030;-70
2023/03/01 00:36:17;;;;;;;21.63;11.52;;;;;;;;;;5043045;28;20037;-69
2023/03/01 00:38:43;;;;;;;22.50;12.27;;;;;;;;;;5046440;28;20037;-68
2023/03/01 00:41:13;;;;;;;21.30;11.32;;;;;;;;;;5044292;28;20271;-70
2023/03/01 00:43:38;;;;;;;17.90;11.15;;;;;;;;;;5051854;28;20039;-71
2023/03/01 00:46:04;;;;;;;20.52;11.95;;;;;;;;;;5048275;28;20029;-72
2023/03/01 00:48:29;;;;;;;19.80;11.85;;;;;;;;;;5046554;28;20033;-69
2023/03/01 00:50:55;;;;;;;17.95;10.23;;;;;;;;;;5043880;28;20024;-70
2023/03/01 00:53:20;;;;;;;24.47;11.57;;;;;;;;;;5046661;28;20039;-70
2023/03/01 00:55:45;;;;;;;17.30;10.70;;;;;;;;;;5045540;28;20029;-73
2023/03/01 00:58:10;;;;;;;19.45;11.35;;;;;;;;;;5046585;28;20279;-72
2023/03/01 01:00:35;;;;;;;22.83;12.23;;;;;;;;;;5042905;28;20025;-70
2023/03/01 01:03:01;;;;;;;18.48;10.45;;;;;;;;;;5044857;28;20374;-68
2023/03/01 01:05:26;;;;;;;20.23;10.40;;;;;;;;;;5044367;28;20051;-69
2023/03/01 01:07:51;;;;;;;21.23;10.90;;;;;;;;;;5048643;28;20359;-70
2023/03/01 01:10:16;;;;;;;21.23;10.23;;;;;;;;;;5042830;28;20799;-70
2023/03/01 01:12:42;;;;;;;19.67;10.70;;;;;;;;;;5044863;28;20306;-72
2023/03/01 01:15:08;;;;;;;20.80;11.75;;;;;;;;;;5051040;28;20075;-73
2023/03/01 01:17:33;;;;;;;22.08;11.30;;;;;;;;;;5047799;28;20025;-70
2023/03/01 01:19:58;;;;;;;19.87;11.17;;;;;;;;;;5047378;28;20446;-70
2023/03/01 01:22:23;;;;;;;16.10;10.37;;;;;;;;;;5045235;28;20603;-70
2023/03/01 01:24:48;;;;;;;20.70;12.67;;;;;;;;;;5046543;28;20271;-71
2023/03/01 01:27:14;;;;;;;22.77;10.97;;;;;;;;;;5039482;28;20283;-72
2023/03/01 01:29:39;;;;;;;20.57;11.00;;;;;;;;;;5047889;28;20275;-71
2023/03/01 01:32:04;;;;;;;20.63;11.03;;;;;;;;;;5044694;28;20292;-71
2023/03/01 01:34:29;;;;;;;20.20;11.65;;;;;;;;;;5047764;28;20384;-69
2023/03/01 01:36:55;;;;;;;17.60;10.80;;;;;;;;;;5047064;28;20090;-71
2023/03/01 01:39:20;;;;;;;20.92;9.93;;;;;;;;;;5045942;28;20290;-71
2023/03/01 01:41:46;;;;;;;19.80;10.45;;;;;;;;;;5042923;28;20502;-76
2023/03/01 01:44:13;;;;;;;19.65;11.13;;;;;;;;;;5046439;28;20471;-79
2023/03/01 01:46:41;;;;;;;20.15;11.70;;;;;;;;;;5043212;28;20585;-78
2023/03/01 01:49:12;;;;;;;18.77;11.27;;;;;;;;;;5052425;28;20131;-78
2023/03/01 01:51:40;;;;;;;22.83;11.27;;;;;;;;;;5045257;28;20275;-77
2023/03/01 01:54:10;;;;;;;18.90;11.43;;;;;;;;;;5028942;28;20029;-77
2023/03/01 01:56:36;;;;;;;21.00;10.50;;;;;;;;;;5043653;28;20120;-76
2023/03/01 01:59:02;;;;;;;16.98;10.13;;;;;;;;;;5047015;28;20033;-71
2023/03/01 02:01:27;;;;;;;19.92;11.43;;;;;;;;;;5040547;28;20029;-67
2023/03/01 02:03:52;;;;;;;22.38;11.77;;;;;;;;;;5047108;28;20104;-67
2023/03/01 02:06:18;;;;;;;21.02;11.27;;;;;;;;;;5045402;28;20025;-67
2023/03/01 02:08:45;;;;;;;17.98;10.73;;;;;;;;;;5042943;28;20041;-67
2023/03/01 02:11:10;;;;;;;18.95;11.40;;;;;;;;;;5044254;28;20037;-65
2023/03/01 02:13:36;;;;;;;21.88;11.98;;;;;;;;;;5045855;28;20356;-65
2023/03/01 02:16:08;;;;;;;19.45;10.85;;;;;;;;;;5046599;28;20021;-70
2023/03/01 02:18:33;;;;;;;20.40;10.38;;;;;;;;;;5048824;28;20251;-69
2023/03/01 02:21:08;;;;;;;22.87;10.67;;;;;;;;;;5049743;28;20051;-64
2023/03/01 02:23:33;;;;;;;18.90;10.55;;;;;;;;;;5045467;28;20630;-65
2023/03/01 02:26:07;;;;;;;20.20;11.60;;;;;;;;;;5045836;28;20036;-64
2023/03/01 02:28:33;;;;;;;17.98;10.10;;;;;;;;;;5042437;28;20030;-63
2023/03/01 02:33:43;;;;;;;18.63;10.43;;;;;;;;;;5038684;28;20342;-66
2023/03/01 02:36:19;;;;;;;20.02;11.07;;;;;;;;;;5043981;28;20489;-71
2023/03/01 02:38:45;;;;;;;18.48;11.23;;;;;;;;;;5042438;28;20044;-70
2023/03/01 02:41:11;;;;;;;19.08;11.35;;;;;;;;;;5046606;28;20078;-70
2023/03/01 02:43:36;;;;;;;22.10;11.55;;;;;;;;;;5043605;28;20117;-71
2023/03/01 02:46:04;;;;;;;19.38;11.93;;;;;;;;;;5040395;28;20108;-70
2023/03/01 02:48:38;;;;;;;19.83;11.95;;;;;;;;;;5042382;28;20029;-71
2023/03/01 02:51:07;;;;;;;21.83;12.30;;;;;;;;;;5049763;28;20051;-70
2023/03/01 02:53:49;;;;;;;21.38;11.80;;;;;;;;;;5049834;28;20025;-72
2023/03/01 02:56:15;;;;;;;24.75;11.63;;;;;;;;;;5041540;28;20029;-72
2023/03/01 02:58:45;;;;;;;21.48;12.63;;;;;;;;;;5040951;28;20480;-70
2023/03/01 03:01:14;;;;;;;19.63;11.32;;;;;;;;;;5038823;28;20424;-69
2023/03/01 03:03:40;;;;;;;23.75;11.23;;;;;;;;;;5046480;28;20376;-70
2023/03/01 03:06:05;;;;;;;21.02;10.77;;;;;;;;;;5042009;28;20124;-70
2023/03/01 03:08:30;;;;;;;21.53;12.23;;;;;;;;;;5044167;28;20036;-72
2023/03/01 03:10:56;;;;;;;19.40;12.07;;;;;;;;;;5044380;28;20279;-68
2023/03/01 03:13:22;;;;;;;20.27;11.87;;;;;;;;;;5046260;28;20738;-76
2023/03/01 03:15:47;;;;;;;19.30;11.88;;;;;;;;;;5043425;28;20272;-65
2023/03/01 03:18:15;;;;;;;20.73;11.32;;;;;;;;;;5045489;28;20040;-68
2023/03/01 03:20:41;;;;;;;22.42;12.25;;;;;;;;;;5050359;28;20028;-67
2023/03/01 03:23:06;;;;;;;22.45;11.73;;;;;;;;;;5053688;28;20095;-64
2023/03/01 03:25:32;;;;;;;22.13;12.00;;;;;;;;;;5052377;28;20672;-66
2023/03/01 03:27:57;;;;;;;23.30;11.98;;;;;;;;;;5046434;28;20127;-66
2023/03/01 03:30:28;;;;;;;22.13;11.38;;;;;;;;;;5048274;28;20033;-67
2023/03/01 03:32:53;;;;;;;19.70;12.50;;;;;;;;;;5031525;28;20029;-73
2023/03/01 03:35:24;;;;;;;21.42;12.13;;;;;;;;;;5042705;28;20663;-72
2023/03/01 03:38:01;;;;;;;20.95;12.45;;;;;;;;;;5044072;28;20047;-72
2023/03/01 03:40:27;;;;;;;24.65;13.00;;;;;;;;;;5043149;28;20029;-72
2023/03/01 03:42:52;;;;;;;21.92;11.93;;;;;;;;;;5046691;28;20644;-72
2023/03/01 03:45:17;;;;;;;20.85;12.30;;;;;;;;;;5047421;28;20387;-72
2023/03/01 03:47:43;;;;;;;23.05;12.05;;;;;;;;;;5048040;28;20040;-72
2023/03/01 03:50:09;;;;;;;20.98;11.90;;;;;;;;;;5050116;28;20203;-73
2023/03/01 03:52:34;;;;;;;20.00;11.90;;;;;;;;;;5049428;28;20091;-77
2023/03/01 03:54:59;;;;;;;18.47;10.87;;;;;;;;;;5053929;28;20032;-77
2023/03/01 03:57:25;;;;;;;20.17;12.00;;;;;;;;;;5049660;28;20358;-77
2023/03/01 03:59:50;;;;;;;23.17;12.53;;;;;;;;;;5050174;28;20378;-76
2023/03/01 04:02:21;;;;;;;23.90;12.07;;;;;;;;;;5046918;28;20279;-77
2023/03/01 04:04:49;;;;;;;24.38;13.45;;;;;;;;;;5045237;28;20268;-76
2023/03/01 04:07:14;;;;;;;23.45;13.77;;;;;;;;;;5049138;28;20086;-77
2023/03/01 04:09:41;;;;;;;18.58;11.57;;;;;;;;;;5049059;28;20476;-65
2023/03/01 04:12:06;;;;;;;21.63;12.48;;;;;;;;;;5041204;28;20041;-66
2023/03/01 04:14:32;;;;;;;22.88;12.23;;;;;;;;;;5043494;28;20472;-65
2023/03/01 04:16:58;;;;;;;22.27;12.50;;;;;;;;;;5045072;28;20053;-65
2023/03/01 04:19:23;;;;;;;20.57;13.07;;;;;;;;;;5041822;28;20052;-66
2023/03/01 04:21:48;;;;;;;25.20;13.00;;;;;;;;;;5048312;28;21211;-68
2023/03/01 04:24:14;;;;;;;22.73;12.13;;;;;;;;;;5047397;28;20059;-68
2023/03/01 04:26:39;;;;;;;21.73;11.63;;;;;;;;;;5049918;28;20329;-69
2023/03/01 04:29:04;;;;;;;23.27;12.52;;;;;;;;;;5052696;28;20264;-78
2023/03/01 04:31:29;;;;;;;22.20;12.68;;;;;;;;;;5044273;28;20518;-76
2023/03/01 04:33:55;;;;;;;19.87;12.87;;;;;;;;;;5038607;28;20025;-77
2023/03/01 04:36:22;;;;;;;22.15;13.32;;;;;;;;;;5046678;28;20413;-76
2023/03/01 04:38:47;;;;;;;24.52;13.65;;;;;;;;;;5042143;28;20032;-80
2023/03/01 04:41:13;;;;;;;22.53;12.93;;;;;;;;;;5048628;28;20025;-78
2023/03/01 04:43:38;;;;;;;25.55;13.52;;;;;;;;;;5045829;28;20693;-70
2023/03/01 04:46:05;;;;;;;23.00;12.83;;;;;;;;;;5045293;28;20021;-68
2023/03/01 04:48:31;;;;;;;21.70;12.85;;;;;;;;;;5027018;28;20284;-69
2023/03/01 04:50:57;;;;;;;21.00;12.75;;;;;;;;;;5049078;28;20112;-69
2023/03/01 04:53:24;;;;;;;22.05;11.85;;;;;;;;;;5042751;28;20141;-68
2023/03/01 04:55:49;;;;;;;20.85;11.73;;;;;;;;;;5048764;28;20100;-69
2023/03/01 04:58:15;;;;;;;22.27;13.35;;;;;;;;;;5047096;28;20036;-69
2023/03/01 05:00:40;;;;;;;23.27;12.80;;;;;;;;;;5049635;28;20025;-68
2023/03/01 05:03:05;;;;;;;20.73;13.53;;;;;;;;;;5043028;28;20345;-64
2023/03/01 05:05:32;;;;;;;23.77;13.73;;;;;;;;;;5045823;28;20337;-70
2023/03/01 05:07:59;;;;;;;23.27;12.55;;;;;;;;;;5046427;28;20272;-69
2023/03/01 05:10:24;;;;;;;22.23;13.85;;;;;;;;;;5026067;28;20035;-70
2023/03/01 05:12:51;;;;;;;25.02;13.68;;;;;;;;;;5046452;28;20045;-70
2023/03/01 05:15:17;;;;;;;19.58;12.38;;;;;;;;;;5046301;28;20040;-69
2023/03/01 05:17:42;;;;;;;25.98;15.00;;;;;;;;;;5027691;28;20025;-72
2023/03/01 05:20:08;;;;;;;21.67;12.63;;;;;;;;;;5042189;28;20033;-68
2023/03/01 05:22:34;;;;;;;26.08;13.98;;;;;;;;;;5041426;28;20349;-69
2023/03/01 05:24:59;;;;;;;22.73;12.77;;;;;;;;;;5040682;28;20101;-76
2023/03/01 05:27:24;;;;;;;25.73;14.83;;;;;;;;;;5044608;28;20025;-75
2023/03/01 05:29:49;;;;;;;27.45;12.85;;;;;;;;;;5027406;28;20278;-76
2023/03/01 05:32:15;;;;;;;23.90;13.60;;;;;;;;;;5038946;28;20767;-75
2023/03/01 05:34:41;;;;;;;26.17;13.93;;;;;;;;;;5048638;28;20643;-77
2023/03/01 05:37:07;;;;;;;24.15;15.05;;;;;;;;;;5037338;28;20071;-76
2023/03/01 05:39:33;;;;;;;21.83;12.77;;;;;;;;;;5033288;28;20227;-64
2023/03/01 05:41:59;;;;;;;24.33;13.90;;;;;;;;;;5043089;28;20593;-64
2023/03/01 05:44:25;;;;;;;23.67;13.68;;;;;;;;;;5036984;28;20582;-63
2023/03/01 05:46:50;;;;;;;24.35;14.95;;;;;;;;;;5029152;28;20124;-64
2023/03/01 05:49:16;;;;;;;21.42;12.40;;;;;;;;;;5047764;28;20531;-65
2023/03/01 05:51:42;;;;;;;21.17;12.43;;;;;;;;;;5048172;28;20398;-65
2023/03/01 05:54:07;;;;;;;22.05;13.68;;;;;;;;;;5037096;28;20282;-65
2023/03/01 05:56:34;;;;;;;21.58;13.45;;;;;;;;;;5040275;28;20037;-65
2023/03/01 05:58:59;;;;;;;22.67;13.45;;;;;;;;;;5046520;28;20021;-67
2023/03/01 06:01:25;;;;;;;23.33;13.63;;;;;;;;;;5031109;28;20341;-71
2023/03/01 06:03:50;;;;;;;24.13;14.23;;;;;;;;;;5051879;28;20429;-72
2023/03/01 06:06:15;;;;;;;24.80;14.65;;;;;;;;;;5045160;28;20351;-71
2023/03/01 06:08:40;;;;;;;22.07;12.50;;;;;;;;;;5037120;28;20414;-72
2023/03/01 06:11:06;;;;;;;23.50;13.80;;;;;;;;;;5022615;28;20729;-72
2023/03/01 06:13:32;;;;;;;28.02;14.80;;;;;;;;;;5034934;28;20746;-71
2023/03/01 06:15:57;;;;;;;25.73;13.48;;;;;;;;;;5045649;28;20083;-73
2023/03/01 06:18:22;;;;;;;23.73;13.37;;;;;;;;;;5036093;28;20449;-72
2023/03/01 06:20:54;;;;;;;22.87;12.97;;;;;;;;;;5048386;28;20769;-70
2023/03/01 06:23:20;;;;;;;24.00;13.02;;;;;;;;;;5035450;28;20333;-70
2023/03/01 06:25:45;;;;;;;26.35;15.00;;;;;;;;;;5043661;28;20033;-70
2023/03/01 06:28:10;;;;;;;22.60;12.95;;;;;;;;;;5043887;28;20040;-71
2023/03/01 06:30:35;;;;;;;24.63;13.73;;;;;;;;;;5040167;28;20549;-71
2023/03/01 06:33:02;;;;;;;26.30;13.38;;;;;;;;;;5044627;28;20382;-71
2023/03/01 06:35:29;;;;;;;28.38;13.75;;;;;;;;;;5050175;28;20032;-71
2023/03/01 06:37:55;;;;;;;27.88;13.98;;;;;;;;;;5043946;28;20036;-71
2023/03/01 06:40:21;;;;;;;24.05;13.25;;;;;;;;;;5044861;28;20236;-67
2023/03/01 06:42:48;;;;;;;23.02;14.55;;;;;;;;;;5033737;28;20040;-71
2023/03/01 06:45:14;;;;;;;27.13;15.52;;;;;;;;;;5038687;28;20375;-67
2023/03/01 06:47:39;;;;;;;22.73;13.63;;;;;;;;;;5037220;28;20026;-69
2023/03/01 06:50:05;;;;;;;23.52;13.60;;;;;;;;;;5048031;28;20036;-70
2023/03/01 06:52:30;;;;;;;26.10;13.32;;;;;;;;;;5041874;28;20032;-72
2023/03/01 06:54:56;;;;;;;23.02;13.30;;;;;;;;;;5052353;28;20429;-69
2023/03/01 06:57:21;;;;;;;23.20;15.33;;;;;;;;;;5051446;28;20036;-70
2023/03/01 06:59:47;;;;;;;29.80;15.90;;;;;;;;;;5050964;28;20279;-68
2023/03/01 07:02:13;;;;;;;24.45;13.27;;;;;;;;;;5047552;28;20078;-68
2023/03/01 07:04:38;;;;;;;26.80;14.30;;;;;;;;;;5038191;28;20429;-71
2023/03/01 07:07:04;;;;;;;23.27;14.32;;;;;;;;;;5053580;28;20033;-68
2023/03/01 07:09:29;;;;;;;24.45;14.73;;;;;;;;;;5043991;28;20842;-68
2023/03/01 07:11:54;;;;;;;27.08;16.05;;;;;;;;;;5036303;28;20388;-70
2023/03/01 07:14:19;;;;;;;26.83;14.45;;;;;;;;;;5041734;28;20029;-75
2023/03/01 07:16:45;;;;;;;29.23;15.40;;;;;;;;;;5042044;28;20031;-76
2023/03/01 07:19:10;;;;;;;25.48;14.00;;;;;;;;;;5048886;28;20391;-74
2023/03/01 07:21:38;;;;;;;24.27;14.50;;;;;;;;;;5051218;28;20154;-67
2023/03/01 07:24:03;;;;;;;28.42;16.23;;;;;;;;;;5046717;28;20029;-70
2023/03/01 07:26:28;;;;;;;24.48;14.35;;;;;;;;;;5050080;28;20044;-69
2023/03/01 07:28:54;;;;;;;26.40;14.60;;;;;;;;;;5042459;28;20025;-72
2023/03/01 07:31:19;;;;;;;24.37;13.60;;;;;;;;;;5051879;28;20260;-70
2023/03/01 07:33:44;;;;;;;23.47;13.23;;;;;;;;;;5044447;28;20261;-76
2023/03/01 07:36:09;;;;;;;25.73;14.80;;;;;;;;;;5052140;28;20263;-76
2023/03/01 07:38:34;;;;;;;21.33;13.80;;;;;;;;;;5049302;28;20264;-75
2023/03/01 07:41:00;;;;;;;26.27;15.00;;;;;;;;;;5054211;28;20351;-74
2023/03/01 07:43:26;;;;;;;27.55;15.23;;;;;;;;;;5047077;28;20296;-76
2023/03/01 07:45:51;;;;;;;23.15;14.43;;;;;;;;;;5047074;28;20108;-74
2023/03/01 07:48:17;;;;;;;20.83;13.57;;;;;;;;;;5048387;28;20128;-69
2023/03/01 07:50:42;;;;;;;24.83;15.15;;;;;;;;;;5050900;28;20494;-64
2023/03/01 07:53:08;;;;;;;28.67;16.63;;;;;;;;;;5038628;28;20086;-64
2023/03/01 07:55:33;;;;;;;24.55;15.38;;;;;;;;;;5050637;28;20321;-63
2023/03/01 07:57:58;;;;;;;22.03;13.07;;;;;;;;;;5051378;28;20033;-64
2023/03/01 08:00:23;;;;;;;30.30;14.35;;;;;;;;;;5048700;28;20275;-63
2023/03/01 08:02:48;;;;;;;25.33;13.93;;;;;;;;;;5051200;28;20028;-64
2023/03/01 08:05:14;;;;;;;25.15;14.82;;;;;;;;;;5047194;28;20048;-69
2023/03/01 08:07:39;;;;;;;26.80;16.08;;;;;;;;;;5051841;28;20040;-70
2023/03/01 08:10:04;;;;;;;26.20;15.68;;;;;;;;;;5048292;28;20383;-69
2023/03/01 08:12:30;;;;;;;25.40;15.52;;;;;;;;;;5057708;28;20029;-69
2023/03/01 08:14:55;;;;;;;22.93;15.37;;;;;;;;;;5046125;28;20325;-70
2023/03/01 08:17:20;;;;;;;25.55;14.68;;;;;;;;;;5050012;28;20623;-70
2023/03/01 08:19:45;;;;;;;27.55;15.27;;;;;;;;;;5045376;28;20124;-69
2023/03/01 08:22:11;;;;;;;24.27;15.00;;;;;;;;;;5050886;28;20051;-69
2023/03/01 08:24:36;;;;;;;26.30;15.57;;;;;;;;;;5037000;28;20036;-73
2023/03/01 08:27:02;;;;;;;30.50;15.77;;;;;;;;;;5050891;28;20650;-66
2023/03/01 08:29:27;;;;;;;22.73;14.70;;;;;;;;;;5043825;28;20367;-66
2023/03/01 08:31:53;;;;;;;26.35;15.68;;;;;;;;;;5048953;28;20116;-66
2023/03/01 08:34:18;;;;;;;26.50;14.93;;;;;;;;;;5048623;28;20068;-66
2023/03/01 08:36:44;;;;;;;23.40;15.30;;;;;;;;;;5050241;28;20036;-64
2023/03/01 08:39:11;;;;;;;29.00;16.50;;;;;;;;;;5042520;28;20108;-63
2023/03/01 08:41:37;;;;;;;26.80;16.30;;;;;;;;;;5037099;28;20349;-63
2023/03/01 08:44:02;;;;;;;24.50;15.38;;;;;;;;;;5052805;28;20242;-68
2023/03/01 08:46:28;;;;;;;31.25;15.43;;;;;;;;;;5048324;28;20143;-65
2023/03/01 08:48:54;;;;;;;23.55;15.65;;;;;;;;;;5049457;28;20035;-63
2023/03/01 08:51:19;;;;;;;26.50;15.63;;;;;;;;;;5049390;28;20029;-65
2023/03/01 08:53:45;;;;;;;24.08;15.15;;;;;;;;;;5046657;28;20114;-63
2023/03/01 08:56:11;;;;;;;26.98;15.77;;;;;;;;;;5038919;28;20380;-64
2023/03/01 08:58:36;;;;;;;23.17;15.90;;;;;;;;;;5049176;28;20033;-64
2023/03/01 09:01:06;;;;;;;24.90;14.13;;;;;;;;;;5049347;28;20063;-71
2023/03/01 09:03:31;;;;;;;23.40;15.52;;;;;;;;;;5049319;28;20499;-76
2023/03/01 09:06:00;;;;;;;25.07;15.37;;;;;;;;;;5050397;28;20020;-70
2023/03/01 09:08:25;;;;;;;25.10;15.05;;;;;;;;;;5050078;28;20279;-69
2023/03/01 09:10:50;;;;;;;22.65;14.77;;;;;;;;;;5048900;28;20028;-70
2023/03/01 09:13:15;;;;;;;20.65;14.50;;;;;;;;;;5050061;28;20135;-68
2023/03/01 09:15:40;;;;;;;24.93;16.00;;;;;;;;;;5056428;28;20367;-68
2023/03/01 09:18:06;;;;;;;23.37;15.47;;;;;;;;;;5048867;28;20268;-70
2023/03/01 09:20:31;;;;;;;21.27;13.65;;;;;;;;;;5047539;28;20750;-69
2023/03/01 09:22:57;;;;;;;23.13;14.63;;;;;;;;;;5049944;28;20095;-74
2023/03/01 09:25:22;;;;;;;23.10;15.40;;;;;;;;;;5047169;28;20507;-74
2023/03/01 09:27:50;;;;;;;20.48;14.02;;;;;;;;;;5048662;28;20037;-75
2023/03/01 09:30:15;;;;;;;23.08;14.70;;;;;;;;;;5046267;28;20127;-75
2023/03/01 09:32:42;;;;;;;22.52;14.02;;;;;;;;;;5030613;28;20170;-73
2023/03/01 09:35:07;;;;;;;21.40;14.65;;;;;;;;;;5045693;28;20025;-73
2023/03/01 09:37:33;;;;;;;22.85;14.68;;;;;;;;;;5049627;28;20052;-67
2023/03/01 09:39:59;;;;;;;23.35;15.60;;;;;;;;;;5045047;28;20025;-70
2023/03/01 09:42:24;;;;;;;24.40;15.65;;;;;;;;;;5049507;28;20115;-76
2023/03/01 09:44:51;;;;;;;20.83;14.25;;;;;;;;;;5044195;28;20044;-77
2023/03/01 09:47:17;;;;;;;22.73;14.85;;;;;;;;;;5038756;28;20033;-77
2023/03/01 09:49:48;;;;;;;22.43;14.43;;;;;;;;;;5050185;28;20530;-78
2023/03/01 09:52:19;;;;;;;24.35;14.85;;;;;;;;;;5050515;28;20387;-76
2023/03/01 09:54:44;;;;;;;26.38;15.20;;;;;;;;;;5042554;28;20117;-77
2023/03/01 09:57:28;;;;;;;25.05;16.60;;;;;;;;;;5048109;28;20115;-69
2023/03/01 10:00:01;;;;;;;21.65;14.88;;;;;;;;;;5040217;28;20025;-69
2023/03/01 10:02:33;;;;;;;20.25;14.85;;;;;;;;;;5047980;28;20029;-69
2023/03/01 10:05:05;;;;;;;24.10;15.88;;;;;;;;;;5039614;28;20121;-69
2023/03/01 10:07:42;;;;;;;22.40;14.40;;;;;;;;;;5048477;28;20021;-69
2023/03/01 10:10:08;;;;;;;21.48;15.30;;;;;;;;;;5038593;28;20033;-69
2023/03/01 10:12:36;;;;;;;26.25;13.95;;;;;;;;;;5047674;28;20498;-70
2023/03/01 10:15:12;;;;;;;21.15;14.50;;;;;;;;;;5043636;28;20043;-77
2023/03/01 10:17:48;;;;;;;22.73;13.40;;;;;;;;;;5048926;28;20029;-77
2023/03/01 10:20:18;;;;;;;18.55;13.15;;;;;;;;;;5046203;28;20605;-77
2023/03/01 10:22:50;;;;;;;21.92;14.57;;;;;;;;;;5045626;28;20036;-76
2023/03/01 10:25:16;;;;;;;22.75;13.68;;;;;;;;;;5038406;28;20034;-79
2023/03/01 10:27:49;;;;;;;20.10;13.50;;;;;;;;;;5046300;28;20024;-78
2023/03/01 10:30:22;;;;;;;21.38;13.75;;;;;;;;;;5048395;28;20041;-78
2023/03/01 10:32:48;;;;;;;20.10;14.00;;;;;;;;;;5048912;28;20158;-69
2023/03/01 10:35:20;;;;;;;22.42;13.85;;;;;;;;;;5047950;28;20021;-75
2023/03/01 10:37:56;;;;;;;21.13;14.25;;;;;;;;;;5048917;28;20033;-77
2023/03/01 10:40:22;;;;;;;19.90;13.65;;;;;;;;;;5047977;28;20473;-78
2023/03/01 10:42:49;;;;;;;21.05;13.80;;;;;;;;;;5048766;28;20075;-78
2023/03/01 10:45:29;;;;;;;19.30;13.63;;;;;;;;;;5029141;28;20051;-77
2023/03/01 10:48:13;;;;;;;19.95;14.48;;;;;;;;;;5048505;28;20116;-80
2023/03/01 10:50:40;;;;;;;19.70;14.10;;;;;;;;;;5044462;28;20323;-77
2023/03/01 10:53:16;;;;;;;19.52;13.45;;;;;;;;;;5053233;28;20041;-69
2023/03/01 10:55:41;;;;;;;19.38;13.30;;;;;;;;;;5022644;28;20036;-66
2023/03/01 10:58:08;;;;;;;18.63;14.05;;;;;;;;;;5047564;28;20032;-65
2023/03/01 11:00:45;;;;;;;18.08;12.48;;;;;;;;;;5021742;28;20033;-63
2023/03/01 11:03:12;;;;;;;18.55;13.60;;;;;;;;;;5047289;28;20036;-65
2023/03/01 11:05:49;;;;;;;17.15;12.73;;;;;;;;;;5039625;28;20075;-67
2023/03/01 11:08:15;;;;;;;19.02;13.43;;;;;;;;;;5047574;28;20666;-65
2023/03/01 11:10:40;;;;;;;19.63;13.95;;;;;;;;;;5048233;28;20116;-66
2023/03/01 11:13:18;;;;;;;20.30;13.37;;;;;;;;;;5048721;28;20040;-69
2023/03/01 11:15:58;;;;;;;19.08;12.73;;;;;;;;;;5046088;28;20279;-69
2023/03/01 11:18:23;;;;;;;19.02;13.35;;;;;;;;;;5039024;28;20124;-71
2023/03/01 11:20:51;;;;;;;19.73;14.27;;;;;;;;;;5038626;28;20623;-70
2023/03/01 11:23:17;;;;;;;18.08;12.70;;;;;;;;;;5055158;28;20335;-70
2023/03/01 11:25:45;;;;;;;18.80;12.95;;;;;;;;;;5039642;28;20493;-72
2023/03/01 11:28:14;;;;;;;18.23;12.52;;;;;;;;;;5047950;28;20058;-77
2023/03/01 11:30:48;;;;;;;21.45;13.98;;;;;;;;;;5037634;28;20040;-70
2023/03/01 11:33:18;;;;;;;22.10;12.85;;;;;;;;;;5045526;28;20028;-73
2023/03/01 11:35:59;;;;;;;18.35;13.30;;;;;;;;;;5037735;28;20080;-73
2023/03/01 11:38:25;;;;;;;22.45;14.45;;;;;;;;;;5036243;28;20065;-73
2023/03/01 11:40:54;;;;;;;21.67;13.98;;;;;;;;;;5038736;28;20029;-74
2023/03/01 11:43:35;;;;;;;17.25;12.90;;;;;;;;;;5020389;28;20037;-73
2023/03/01 11:46:20;;;;;;;18.27;13.43;;;;;;;;;;5050893;28;20071;-65
2023/03/01 11:48:48;;;;;;;20.42;11.65;;;;;;;;;;5048475;28;20519;-69
2023/03/01 11:51:20;;;;;;;17.77;12.07;;;;;;;;;;5033598;28;20496;-70
2023/03/01 11:53:51;;;;;;;23.20;13.60;;;;;;;;;;5050995;28;20024;-70
2023/03/01 11:56:16;;;;;;;20.50;14.65;;;;;;;;;;5056811;28;20150;-71
2023/03/01 11:58:44;;;;;;;17.77;12.80;;;;;;;;;;5050927;28;20129;-70
2023/03/01 12:01:32;;;;;;;22.38;13.93;;;;;;;;;;5047490;28;20032;-70
2023/03/01 12:04:03;;;;;;;18.10;12.32;;;;;;;;;;5050468;28;20036;-70
2023/03/01 12:06:31;;;;;;;20.00;13.65;;;;;;;;;;5048366;28;20025;-68
2023/03/01 12:09:15;;;;;;;20.60;14.43;;;;;;;;;;5051575;28;20370;-70
2023/03/01 12:11:56;;;;;;;23.60;12.98;;;;;;;;;;5045965;28;20127;-69
2023/03/01 12:14:43;;;;;;;20.17;13.98;;;;;;;;;;5051436;28;20103;-69
2023/03/01 12:17:27;;;;;;;20.75;14.15;;;;;;;;;;5045701;28;20033;-69
2023/03/01 12:20:13;;;;;;;18.20;12.63;;;;;;;;;;5049804;28;20040;-70
2023/03/01 12:22:53;;;;;;;19.00;13.15;;;;;;;;;;5049029;28;20100;-69
2023/03/01 12:25:21;;;;;;;21.15;13.65;;;;;;;;;;5046663;28;20021;-69
2023/03/01 12:28:05;;;;;;;17.65;13.05;;;;;;;;;;5056940;28;20035;-67
2023/03/01 12:30:43;;;;;;;20.88;13.32;;;;;;;;;;5045471;28;20041;-69
2023/03/01 12:33:20;;;;;;;19.00;13.35;;;;;;;;;;5047327;28;20064;-67
2023/03/01 12:36:21;;;;;;;22.13;14.05;;;;;;;;;;5049544;28;20037;-69
2023/03/01 12:38:50;;;;;;;18.13;11.77;;;;;;;;;;4960101;28;20031;-70
2023/03/01 12:41:28;;;;;;;21.15;13.18;;;;;;;;;;5022273;28;20028;-75
2023/03/01 12:44:05;;;;;;;18.02;12.07;;;;;;;;;;5050478;28;20048;-69
2023/03/01 12:46:41;;;;;;;18.92;12.27;;;;;;;;;;5041221;28;20017;-69
2023/03/01 12:49:09;;;;;;;17.48;12.60;;;;;;;;;;5044635;28;20044;-70
2023/03/01 12:51:37;;;;;;;17.48;12.45;;;;;;;;;;5037431;28;20021;-72
2023/03/01 12:54:06;;;;;;;18.95;12.60;;;;;;;;;;5050664;28;20507;-70
2023/03/01 12:56:32;;;;;;;18.42;11.80;;;;;;;;;;5050159;28;20483;-70
2023/03/01 12:59:13;;;;;;;17.00;11.25;;;;;;;;;;5055409;28;20033;-70
2023/03/01 13:01:53;;;;;;;17.27;12.10;;;;;;;;;;5051670;28;20036;-75
2023/03/01 13:04:18;;;;;;;16.58;11.75;;;;;;;;;;5037054;28;20036;-70
2023/03/01 13:06:54;;;;;;;17.47;11.43;;;;;;;;;;5048918;28;20086;-70
2023/03/01 13:09:39;;;;;;;19.27;11.73;;;;;;;;;;5036574;28;20472;-69
2023/03/01 13:12:24;;;;;;;21.52;12.10;;;;;;;;;;5047858;28;20052;-69
2023/03/01 13:14:53;;;;;;;16.85;11.30;;;;;;;;;;5050131;28;20492;-69
2023/03/01 13:17:31;;;;;;;18.35;11.38;;;;;;;;;;5047011;28;20032;-69
2023/03/01 13:19:57;;;;;;;18.10;11.80;;;;;;;;;;5050039;28;20068;-69
2023/03/01 13:22:28;;;;;;;17.60;11.27;;;;;;;;;;5046583;28;20028;-69
2023/03/01 13:25:01;;;;;;;17.95;12.70;;;;;;;;;;5050155;28;20159;-68
2023/03/01 13:27:29;;;;;;;20.45;11.52;;;;;;;;;;5028005;28;20024;-68
2023/03/01 13:30:05;;;;;;;17.63;12.02;;;;;;;;;;5049961;28;20040;-69
2023/03/01 13:32:38;;;;;;;19.17;11.02;;;;;;;;;;5052014;28;20040;-71
2023/03/01 13:35:04;;;;;;;18.35;11.55;;;;;;;;;;5049835;28;20048;-69
2023/03/01 13:37:31;;;;;;;16.00;10.65;;;;;;;;;;5043968;28;20031;-69
2023/03/01 13:39:58;;;;;;;18.15;11.68;;;;;;;;;;5049926;28;20120;-76
2023/03/01 13:42:37;;;;;;;15.63;9.75;;;;;;;;;;5044228;28;20485;-76
2023/03/01 13:45:03;;;;;;;17.48;11.40;;;;;;;;;;5036204;28;20844;-76
2023/03/01 13:47:28;;;;;;;17.67;12.35;;;;;;;;;;5043446;28;20033;-76
2023/03/01 13:49:57;;;;;;;21.33;14.02;;;;;;;;;;5041110;28;20487;-76
2023/03/01 13:52:41;;;;;;;16.77;11.95;;;;;;;;;;5042859;28;20043;-77
2023/03/01 13:55:18;;;;;;;20.60;11.40;;;;;;;;;;5049426;28;20040;-70
2023/03/01 13:57:48;;;;;;;22.63;12.68;;;;;;;;;;5038554;28;20353;-76
2023/03/01 14:00:13;;;;;;;;;;;;;;;;;;5031539;28;20033;-70
2023/03/01 14:02:38;;;;;;;20.45;11.48;;;;;;;;;;5040741;28;19919;-69
2023/03/01 14:05:03;;;;;;;17.63;12.43;;;;;;;;;;5054322;28;20040;-71
2023/03/01 14:07:29;;;;;;;19.80;13.30;;;;;;;;;;5036794;28;20263;-69
2023/03/01 14:09:57;;;;;;;19.70;13.18;;;;;;;;;;5048070;28;20033;-69
2023/03/01 14:12:26;;;;;;;21.92;13.82;;;;;;;;;;5036149;28;20116;-70
2023/03/01 14:14:54;;;;;;;21.77;14.02;;;;;;;;;;5049509;28;20043;-70
2023/03/01 14:17:19;;;;;;;23.13;13.93;;;;;;;;;;5045392;28;20114;-75
2023/03/01 14:19:46;;;;;;;21.20;13.23;;;;;;;;;;5049272;28;20488;-74
2023/03/01 14:22:14;;;;;;;19.35;13.25;;;;;;;;;;5025716;28;20037;-77
2023/03/01 14:24:44;;;;;;;24.92;15.23;;;;;;;;;;5049046;28;20118;-75
2023/03/01 14:27:11;;;;;;;22.67;14.85;;;;;;;;;;5048659;28;20048;-74